Time;durP1;ratioP1;P1;durP2;ratioP2;P2;SDS_P1;SDS_P2;PMS_P1;PMS_P2;Temp;Humidity;BMP_temperature;BMP_pressure;BME280_temperature;BME280_humidity;BME280_pressure;Samples;Min_cycle;Max_cycle;Signal;HPM_P1;HPM_P2
2022/04/10 00:00:59;;;;;;;13.43;3.67;;;;;;;;;;5074570;28;20048;-64
2022/04/10 00:03:26;;;;;;;11.55;2.92;;;;;;;;;;5069922;28;20389;-60
2022/04/10 00:05:53;;;;;;;9.68;3.15;;;;;;;;;;5088087;28;20044;-60
2022/04/10 00:08:20;;;;;;;8.20;2.80;;;;;;;;;;5058898;28;20501;-60
2022/04/10 00:10:47;;;;;;;13.68;4.05;;;;;;;;;;5083886;28;20036;-60
2022/04/10 00:13:14;;;;;;;15.13;3.63;;;;;;;;;;5046232;28;20044;-61
2022/04/10 00:15:40;;;;;;;7.38;2.75;;;;;;;;;;5038679;28;20040;-61
2022/04/10 00:18:07;;;;;;;19.42;3.30;;;;;;;;;;5064514;28;20045;-61
2022/04/10 00:20:33;;;;;;;10.75;3.45;;;;;;;;;;5070354;28;20032;-61
2022/04/10 00:23:00;;;;;;;7.88;3.25;;;;;;;;;;5066691;28;21325;-61
2022/04/10 00:25:27;;;;;;;12.07;3.00;;;;;;;;;;5030634;28;20071;-61
2022/04/10 00:27:54;;;;;;;15.05;3.15;;;;;;;;;;5055798;28;20536;-61
2022/04/10 00:30:20;;;;;;;7.05;2.70;;;;;;;;;;5077098;28;20040;-61
2022/04/10 00:32:48;;;;;;;13.68;3.03;;;;;;;;;;5033192;28;20064;-61
2022/04/10 00:35:14;;;;;;;6.05;2.67;;;;;;;;;;5068034;28;20040;-61
2022/04/10 00:37:42;;;;;;;9.65;3.30;;;;;;;;;;5026288;28;20792;-60
2022/04/10 00:40:09;;;;;;;11.20;3.42;;;;;;;;;;5016652;28;20383;-61
2022/04/10 00:42:40;;;;;;;9.35;3.28;;;;;;;;;;5082354;28;20032;-61
2022/04/10 00:45:07;;;;;;;9.85;3.22;;;;;;;;;;5081775;28;20508;-61
2022/04/10 00:47:34;;;;;;;16.08;4.05;;;;;;;;;;5075954;28;20048;-61
2022/04/10 00:50:02;;;;;;;6.13;2.63;;;;;;;;;;5085839;28;20035;-61
2022/04/10 00:52:30;;;;;;;20.55;3.50;;;;;;;;;;5055320;28;20093;-61
2022/04/10 00:54:58;;;;;;;12.77;2.55;;;;;;;;;;5040860;28;20132;-61
2022/04/10 00:57:25;;;;;;;8.70;2.58;;;;;;;;;;5067326;28;20066;-61
2022/04/10 00:59:51;;;;;;;6.45;2.70;;;;;;;;;;5043903;28;20047;-61
2022/04/10 01:02:18;;;;;;;8.55;3.03;;;;;;;;;;5086438;28;20040;-60
2022/04/10 01:04:48;;;;;;;7.18;2.70;;;;;;;;;;5055338;28;20415;-60
2022/04/10 01:07:16;;;;;;;8.93;3.30;;;;;;;;;;5043214;28;20074;-59
2022/04/10 01:09:42;;;;;;;11.52;3.88;;;;;;;;;;5044272;28;20036;-59
2022/04/10 01:12:09;;;;;;;9.63;2.92;;;;;;;;;;5058549;28;20032;-61
2022/04/10 01:14:36;;;;;;;8.20;3.75;;;;;;;;;;5020494;28;20525;-60
2022/04/10 01:17:03;;;;;;;12.25;3.10;;;;;;;;;;5065954;28;20137;-60
2022/04/10 01:19:34;;;;;;;17.15;5.43;;;;;;;;;;5050501;28;20421;-60
2022/04/10 01:22:05;;;;;;;9.85;3.00;;;;;;;;;;5030877;28;20032;-60
2022/04/10 01:24:34;;;;;;;10.50;2.95;;;;;;;;;;5073575;28;20039;-60
2022/04/10 01:27:02;;;;;;;7.35;3.00;;;;;;;;;;5029200;28;20044;-60
2022/04/10 01:29:29;;;;;;;8.82;2.67;;;;;;;;;;5079809;28;20501;-60
2022/04/10 01:31:56;;;;;;;8.80;2.83;;;;;;;;;;5054340;28;20489;-60
2022/04/10 01:34:24;;;;;;;9.70;2.40;;;;;;;;;;5053104;28;20105;-60
2022/04/10 01:36:52;;;;;;;8.77;2.33;;;;;;;;;;5028875;28;20040;-61
2022/04/10 01:39:20;;;;;;;10.55;2.95;;;;;;;;;;5016599;28;20510;-60
2022/04/10 01:41:47;;;;;;;12.38;3.90;;;;;;;;;;5009747;28;20119;-60
2022/04/10 01:44:14;;;;;;;13.40;3.63;;;;;;;;;;5046035;28;20063;-60
2022/04/10 01:46:40;;;;;;;5.85;2.53;;;;;;;;;;5088112;28;20054;-60
2022/04/10 01:49:08;;;;;;;7.25;3.85;;;;;;;;;;5026135;28;20044;-60
2022/04/10 01:51:36;;;;;;;11.10;4.07;;;;;;;;;;5090062;28;20278;-60
2022/04/10 01:54:03;;;;;;;7.55;2.30;;;;;;;;;;5058149;28;20040;-60
2022/04/10 01:56:30;;;;;;;8.77;2.65;;;;;;;;;;5087789;28;20040;-60
2022/04/10 01:58:56;;;;;;;15.10;3.30;;;;;;;;;;5067376;28;20082;-60
2022/04/10 02:01:23;;;;;;;10.43;3.35;;;;;;;;;;5065062;28;20508;-60
2022/04/10 02:03:51;;;;;;;6.90;2.30;;;;;;;;;;5065636;28;20062;-60
2022/04/10 02:06:18;;;;;;;8.38;1.83;;;;;;;;;;5037425;28;20072;-60
2022/04/10 02:08:45;;;;;;;2.97;1.52;;;;;;;;;;5069002;28;20040;-60
2022/04/10 02:11:13;;;;;;;5.47;1.83;;;;;;;;;;5035192;28;20044;-60
2022/04/10 02:13:40;;;;;;;11.55;2.35;;;;;;;;;;5032230;28;20490;-60
2022/04/10 02:16:08;;;;;;;3.75;1.45;;;;;;;;;;5056160;28;20523;-60
2022/04/10 02:18:35;;;;;;;7.40;1.67;;;;;;;;;;5039049;28;20434;-61
2022/04/10 02:21:02;;;;;;;6.18;1.88;;;;;;;;;;5061672;28;20043;-60
2022/04/10 02:23:28;;;;;;;4.50;1.92;;;;;;;;;;5067263;28;20072;-59
2022/04/10 02:25:55;;;;;;;3.22;1.40;;;;;;;;;;5073825;28;20076;-59
2022/04/10 02:28:22;;;;;;;5.05;1.85;;;;;;;;;;5047341;28;20115;-60
2022/04/10 02:30:49;;;;;;;8.02;1.70;;;;;;;;;;5060038;28;20112;-60
2022/04/10 02:33:15;;;;;;;7.55;1.95;;;;;;;;;;5062016;28;20040;-60
2022/04/10 02:35:43;;;;;;;9.35;1.70;;;;;;;;;;5082105;28;20127;-61
2022/04/10 02:38:10;;;;;;;2.40;1.55;;;;;;;;;;5055816;28;20032;-60
2022/04/10 02:40:37;;;;;;;4.68;1.70;;;;;;;;;;5024408;28;20105;-60
2022/04/10 02:43:05;;;;;;;5.47;1.73;;;;;;;;;;5039358;28;20036;-60
2022/04/10 02:45:32;;;;;;;3.95;1.58;;;;;;;;;;5023936;28;20033;-60
2022/04/10 02:47:59;;;;;;;4.13;1.60;;;;;;;;;;5034084;28;20166;-61
2022/04/10 02:50:26;;;;;;;5.07;1.98;;;;;;;;;;5068335;28;20044;-60
2022/04/10 02:52:53;;;;;;;8.13;1.60;;;;;;;;;;5084401;28;20040;-60
2022/04/10 02:55:20;;;;;;;3.33;1.20;;;;;;;;;;5055032;28;20043;-60
2022/04/10 02:57:47;;;;;;;3.22;1.05;;;;;;;;;;5081795;28;20040;-60
2022/04/10 03:00:17;;;;;;;1.88;1.00;;;;;;;;;;5033549;28;20047;-60
2022/04/10 03:02:43;;;;;;;2.90;1.05;;;;;;;;;;5063256;28;20555;-61
2022/04/10 03:05:10;;;;;;;3.33;1.13;;;;;;;;;;5078296;28;20066;-60
2022/04/10 03:07:36;;;;;;;2.42;1.48;;;;;;;;;;5033097;28;20083;-60
2022/04/10 03:10:03;;;;;;;3.03;1.05;;;;;;;;;;5085567;28;20123;-61
2022/04/10 03:12:30;;;;;;;3.10;1.10;;;;;;;;;;5029183;28;20085;-61
2022/04/10 03:14:56;;;;;;;3.47;1.20;;;;;;;;;;5082818;28;20044;-61
2022/04/10 03:17:23;;;;;;;2.38;0.95;;;;;;;;;;5077602;28;20505;-60
2022/04/10 03:19:54;;;;;;;2.30;1.00;;;;;;;;;;5049905;28;20038;-60
2022/04/10 03:22:21;;;;;;;3.22;1.10;;;;;;;;;;5049617;28;20036;-60
2022/04/10 03:24:48;;;;;;;2.33;1.27;;;;;;;;;;5086504;28;20040;-60
2022/04/10 03:27:16;;;;;;;4.57;1.83;;;;;;;;;;5019170;28;20075;-60
2022/04/10 03:29:43;;;;;;;3.92;1.95;;;;;;;;;;5052204;28;20032;-60
2022/04/10 03:32:09;;;;;;;5.32;2.05;;;;;;;;;;5066187;28;20048;-60
2022/04/10 03:34:36;;;;;;;3.00;1.27;;;;;;;;;;5085889;28;20299;-60
2022/04/10 03:37:03;;;;;;;5.03;1.35;;;;;;;;;;5036488;28;20100;-60
2022/04/10 03:39:29;;;;;;;6.15;2.00;;;;;;;;;;5024321;28;20134;-60
2022/04/10 03:41:56;;;;;;;7.22;1.95;;;;;;;;;;5064025;28;20045;-60
2022/04/10 03:44:22;;;;;;;6.07;1.25;;;;;;;;;;5070733;28;20043;-60
2022/04/10 03:46:49;;;;;;;5.72;2.47;;;;;;;;;;5052267;28;20044;-59
2022/04/10 03:49:16;;;;;;;3.78;1.83;;;;;;;;;;5025524;28;20131;-60
2022/04/10 03:51:42;;;;;;;5.50;1.73;;;;;;;;;;5083913;28;20028;-60
2022/04/10 03:54:09;;;;;;;4.47;2.05;;;;;;;;;;5044432;28;20041;-60
2022/04/10 03:56:36;;;;;;;3.75;1.65;;;;;;;;;;5041222;28;20074;-60
2022/04/10 03:59:02;;;;;;;5.97;1.90;;;;;;;;;;5083494;28;20390;-60
2022/04/10 04:01:29;;;;;;;8.27;1.88;;;;;;;;;;5067456;28;20067;-60
2022/04/10 04:03:55;;;;;;;7.50;1.80;;;;;;;;;;5050651;28;20043;-60
2022/04/10 04:06:22;;;;;;;5.47;1.88;;;;;;;;;;5045427;28;20046;-60
2022/04/10 04:08:49;;;;;;;3.85;1.35;;;;;;;;;;5048600;28;20094;-60
2022/04/10 04:11:16;;;;;;;8.40;1.63;;;;;;;;;;5070151;28;20043;-60
2022/04/10 04:13:44;;;;;;;4.53;1.75;;;;;;;;;;5028421;28;20076;-60
2022/04/10 04:16:16;;;;;;;5.35;2.00;;;;;;;;;;5036036;28;20048;-60
2022/04/10 04:18:45;;;;;;;5.25;1.92;;;;;;;;;;5070896;28;20485;-61
2022/04/10 04:21:11;;;;;;;5.18;1.77;;;;;;;;;;5048465;28;20036;-60
2022/04/10 04:23:38;;;;;;;6.75;1.73;;;;;;;;;;5053825;28;20119;-61
2022/04/10 04:26:05;;;;;;;4.28;1.90;;;;;;;;;;5087619;28;20285;-60
2022/04/10 04:28:35;;;;;;;8.48;3.47;;;;;;;;;;5070618;28;20489;-60
2022/04/10 04:31:02;;;;;;;6.90;2.10;;;;;;;;;;5041288;28;20046;-60
2022/04/10 04:33:29;;;;;;;5.05;1.95;;;;;;;;;;5091710;28;20032;-60
2022/04/10 04:35:57;;;;;;;7.13;2.58;;;;;;;;;;5030472;28;20048;-60
2022/04/10 04:38:25;;;;;;;6.10;2.30;;;;;;;;;;5011853;28;20037;-60
2022/04/10 04:40:52;;;;;;;7.18;2.08;;;;;;;;;;5058067;28;20051;-60
2022/04/10 04:43:19;;;;;;;6.85;1.92;;;;;;;;;;5081690;28;20059;-60
2022/04/10 04:45:47;;;;;;;7.50;2.45;;;;;;;;;;5070329;28;20066;-60
2022/04/10 04:48:14;;;;;;;9.27;2.67;;;;;;;;;;5033988;28;20047;-60
2022/04/10 04:50:45;;;;;;;5.15;2.42;;;;;;;;;;5048988;28;20044;-60
2022/04/10 04:53:13;;;;;;;11.10;3.10;;;;;;;;;;5057443;28;20059;-60
2022/04/10 04:55:40;;;;;;;3.65;1.70;;;;;;;;;;5033160;28;20407;-60
2022/04/10 04:58:07;;;;;;;6.63;2.58;;;;;;;;;;5026593;28;20613;-60
2022/04/10 05:00:34;;;;;;;5.20;1.83;;;;;;;;;;5080401;28;20505;-60
2022/04/10 05:03:01;;;;;;;6.85;1.98;;;;;;;;;;5089661;28;20040;-60
2022/04/10 05:05:28;;;;;;;7.57;1.83;;;;;;;;;;5020905;28;20071;-60
2022/04/10 05:07:54;;;;;;;4.70;1.85;;;;;;;;;;5078279;28;20040;-60
2022/04/10 05:10:21;;;;;;;5.70;2.25;;;;;;;;;;5080821;28;20854;-60
2022/04/10 05:12:48;;;;;;;11.10;2.83;;;;;;;;;;5073325;28;20569;-60
2022/04/10 05:15:15;;;;;;;6.20;2.05;;;;;;;;;;5034349;28;20090;-60
2022/04/10 05:17:41;;;;;;;8.32;2.13;;;;;;;;;;5086149;28;20698;-60
2022/04/10 05:20:08;;;;;;;8.02;1.92;;;;;;;;;;5084807;28;20406;-60
2022/04/10 05:22:35;;;;;;;8.95;2.17;;;;;;;;;;5040244;28;20042;-60
2022/04/10 05:25:02;;;;;;;6.00;2.13;;;;;;;;;;5059081;28;20060;-60
2022/04/10 05:27:28;;;;;;;8.50;2.33;;;;;;;;;;5039649;28;20034;-61
2022/04/10 05:29:57;;;;;;;6.35;1.67;;;;;;;;;;5067476;28;20044;-60
2022/04/10 05:32:24;;;;;;;6.47;2.08;;;;;;;;;;5085809;28;20058;-60
2022/04/10 05:34:51;;;;;;;8.30;2.38;;;;;;;;;;5071657;28;20043;-60
2022/04/10 05:37:17;;;;;;;4.88;1.67;;;;;;;;;;5060427;28;20181;-60
2022/04/10 05:39:44;;;;;;;9.05;2.17;;;;;;;;;;5086277;28;20425;-60
2022/04/10 05:42:11;;;;;;;2.42;1.10;;;;;;;;;;5059461;28;20048;-60
2022/04/10 05:44:38;;;;;;;6.22;1.67;;;;;;;;;;5061670;28;20044;-60
2022/04/10 05:47:05;;;;;;;5.03;1.65;;;;;;;;;;5042559;28;20128;-60
2022/04/10 05:49:32;;;;;;;4.07;1.40;;;;;;;;;;5025022;28;20502;-59
2022/04/10 05:51:59;;;;;;;3.22;1.13;;;;;;;;;;5041093;28;20045;-60
2022/04/10 05:54:26;;;;;;;3.35;1.35;;;;;;;;;;5044739;28;20048;-60
2022/04/10 05:56:55;;;;;;;5.47;1.27;;;;;;;;;;5033269;28;20064;-60
2022/04/10 05:59:21;;;;;;;5.38;1.42;;;;;;;;;;5056154;28;20041;-60
2022/04/10 06:01:48;;;;;;;3.58;1.35;;;;;;;;;;5055223;28;20488;-60
2022/04/10 06:04:15;;;;;;;6.85;1.77;;;;;;;;;;5066995;28;20037;-60
2022/04/10 06:06:42;;;;;;;6.93;2.10;;;;;;;;;;5047015;28;20036;-60
2022/04/10 06:09:08;;;;;;;3.38;1.38;;;;;;;;;;5059483;28;20117;-60
2022/04/10 06:11:35;;;;;;;5.20;1.55;;;;;;;;;;5047466;28;20114;-60
2022/04/10 06:14:02;;;;;;;3.17;1.50;;;;;;;;;;5052312;28;20048;-60
2022/04/10 06:16:30;;;;;;;8.52;2.25;;;;;;;;;;5009638;28;20493;-59
2022/04/10 06:19:00;;;;;;;4.10;1.60;;;;;;;;;;5051191;28;20087;-61
2022/04/10 06:21:26;;;;;;;8.07;1.92;;;;;;;;;;5065366;28;20146;-60
2022/04/10 06:23:53;;;;;;;9.00;2.20;;;;;;;;;;5050780;28;20331;-60
2022/04/10 06:26:21;;;;;;;4.93;2.10;;;;;;;;;;5030079;28;20132;-60
2022/04/10 06:28:53;;;;;;;6.07;2.10;;;;;;;;;;5018240;28;20036;-60
2022/04/10 06:31:23;;;;;;;4.25;2.00;;;;;;;;;;5033006;28;20036;-61
2022/04/10 06:33:50;;;;;;;6.32;2.42;;;;;;;;;;5034843;28;20072;-60
2022/04/10 06:36:17;;;;;;;10.38;3.05;;;;;;;;;;5050429;28;20052;-61
2022/04/10 06:38:44;;;;;;;7.53;2.83;;;;;;;;;;5067591;28;20125;-60
2022/04/10 06:41:11;;;;;;;9.32;2.72;;;;;;;;;;5032746;28;20044;-60
2022/04/10 06:43:58;;;;;;;6.05;2.00;;;;;;;;;;5033125;28;20040;-60
2022/04/10 06:46:26;;;;;;;5.63;2.20;;;;;;;;;;5031452;28;20505;-60
2022/04/10 06:48:54;;;;;;;8.52;2.65;;;;;;;;;;5035790;28;20047;-60
2022/04/10 06:51:21;;;;;;;7.55;2.47;;;;;;;;;;5032482;28;20063;-60
2022/04/10 06:53:48;;;;;;;9.10;2.50;;;;;;;;;;5061429;28;20051;-60
2022/04/10 06:56:15;;;;;;;11.00;2.63;;;;;;;;;;5051094;28;20041;-61
2022/04/10 06:58:44;;;;;;;11.23;2.97;;;;;;;;;;5048442;28;20318;-60
2022/04/10 07:01:11;;;;;;;9.90;2.95;;;;;;;;;;5059461;28;20036;-60
2022/04/10 07:03:38;;;;;;;11.02;3.13;;;;;;;;;;5066716;28;20041;-60
2022/04/10 07:06:05;;;;;;;7.10;2.47;;;;;;;;;;5065098;28;20047;-60
2022/04/10 07:08:39;;;;;;;8.20;2.30;;;;;;;;;;5016510;28;20048;-61
2022/04/10 07:11:07;;;;;;;7.60;2.25;;;;;;;;;;5021495;28;20033;-61
2022/04/10 07:13:39;;;;;;;5.75;1.83;;;;;;;;;;5063213;28;20059;-61
2022/04/10 07:16:09;;;;;;;10.20;2.42;;;;;;;;;;5034170;28;20086;-61
2022/04/10 07:18:36;;;;;;;8.40;2.03;;;;;;;;;;5040282;28;20508;-61
2022/04/10 07:21:03;;;;;;;6.40;2.25;;;;;;;;;;5067472;28;20040;-62
2022/04/10 07:23:41;;;;;;;6.93;2.65;;;;;;;;;;5048624;28;20084;-60
2022/04/10 07:26:09;;;;;;;18.50;3.35;;;;;;;;;;5065382;28;20046;-59
2022/04/10 07:28:38;;;;;;;9.00;2.70;;;;;;;;;;5050002;28;20584;-61
2022/04/10 07:31:06;;;;;;;5.10;2.17;;;;;;;;;;5029506;28;20056;-60
2022/04/10 07:33:33;;;;;;;9.25;2.63;;;;;;;;;;5046739;28;20084;-60
2022/04/10 07:35:59;;;;;;;6.70;3.55;;;;;;;;;;5061408;28;20403;-60
2022/04/10 07:38:26;;;;;;;13.38;2.90;;;;;;;;;;5061923;28;20040;-60
2022/04/10 07:40:53;;;;;;;7.13;2.70;;;;;;;;;;5083309;28;20116;-60
2022/04/10 07:43:30;;;;;;;13.40;3.45;;;;;;;;;;5042784;28;20035;-60
2022/04/10 07:48:42;;;;;;;11.20;3.08;;;;;;;;;;5042482;28;20052;-60
2022/04/10 07:51:10;;;;;;;7.38;2.67;;;;;;;;;;5028393;28;20044;-60
2022/04/10 07:53:47;;;;;;;10.88;2.90;;;;;;;;;;5019767;28;20528;-60
2022/04/10 07:56:14;;;;;;;10.98;4.07;;;;;;;;;;5032541;28;20432;-60
2022/04/10 07:58:41;;;;;;;8.43;2.42;;;;;;;;;;5019416;28;20042;-60
2022/04/10 08:01:08;;;;;;;5.88;2.20;;;;;;;;;;5038491;28;20040;-60
2022/04/10 08:03:35;;;;;;;9.35;2.65;;;;;;;;;;5043125;28;20392;-60
2022/04/10 08:06:02;;;;;;;5.63;2.17;;;;;;;;;;5032826;28;20043;-60
2022/04/10 08:08:28;;;;;;;7.80;2.72;;;;;;;;;;5039369;28;20048;-60
2022/04/10 08:10:55;;;;;;;4.85;1.88;;;;;;;;;;5033176;28;20043;-60
2022/04/10 08:13:22;;;;;;;5.78;1.63;;;;;;;;;;5083510;28;20508;-60
2022/04/10 08:15:49;;;;;;;9.00;2.47;;;;;;;;;;5048446;28;20489;-60
2022/04/10 08:18:16;;;;;;;7.07;2.30;;;;;;;;;;5048588;28;20047;-60
2022/04/10 08:20:43;;;;;;;7.53;2.60;;;;;;;;;;5065194;28;20417;-60
2022/04/10 08:23:10;;;;;;;6.72;2.20;;;;;;;;;;5061819;28;20045;-61
2022/04/10 08:25:37;;;;;;;5.60;2.40;;;;;;;;;;5033767;28;20067;-60
2022/04/10 08:28:05;;;;;;;9.23;3.55;;;;;;;;;;5013641;28;20036;-60
2022/04/10 08:30:31;;;;;;;9.23;2.65;;;;;;;;;;5028562;28;20520;-60
2022/04/10 08:32:59;;;;;;;11.18;2.67;;;;;;;;;;5032687;28;20032;-61
2022/04/10 08:35:26;;;;;;;3.30;2.00;;;;;;;;;;5083443;28;20115;-60
2022/04/10 08:37:53;;;;;;;7.25;3.15;;;;;;;;;;5031394;28;20037;-60
2022/04/10 08:40:21;;;;;;;4.22;2.28;;;;;;;;;;5030648;28;20057;-60
2022/04/10 08:42:48;;;;;;;7.63;2.17;;;;;;;;;;5032120;28;20039;-60
2022/04/10 08:45:16;;;;;;;8.65;2.10;;;;;;;;;;5031555;28;20036;-59
2022/04/10 08:47:43;;;;;;;10.43;4.18;;;;;;;;;;5050662;28;20087;-60
2022/04/10 08:50:11;;;;;;;12.15;3.05;;;;;;;;;;5015832;28;20049;-60
2022/04/10 08:52:39;;;;;;;6.45;1.85;;;;;;;;;;5048056;28;20052;-60
2022/04/10 08:55:11;;;;;;;13.13;3.05;;;;;;;;;;5029979;28;20120;-59
2022/04/10 08:57:38;;;;;;;9.13;2.90;;;;;;;;;;5032400;28;20064;-60
2022/04/10 09:00:06;;;;;;;8.25;2.65;;;;;;;;;;5028461;28;20885;-60
2022/04/10 09:02:44;;;;;;;8.20;2.20;;;;;;;;;;5046581;28;20040;-61
2022/04/10 09:05:16;;;;;;;5.97;2.03;;;;;;;;;;5063424;28;20513;-60
2022/04/10 09:08:02;;;;;;;6.65;2.63;;;;;;;;;;5063571;28;20051;-61
2022/04/10 09:10:29;;;;;;;7.05;1.80;;;;;;;;;;5047391;28;20414;-63
2022/04/10 09:12:56;;;;;;;11.55;2.15;;;;;;;;;;5032636;28;20044;-60
2022/04/10 09:15:33;;;;;;;4.53;2.20;;;;;;;;;;5051156;28;20044;-59
2022/04/10 09:18:03;;;;;;;9.80;1.80;;;;;;;;;;5052966;28;20040;-60
2022/04/10 09:20:40;;;;;;;7.43;2.00;;;;;;;;;;5052845;28;20039;-61
2022/04/10 09:23:10;;;;;;;8.38;2.15;;;;;;;;;;5064094;28;20091;-59
2022/04/10 09:25:49;;;;;;;7.95;2.53;;;;;;;;;;5035925;28;20040;-61
2022/04/10 09:28:19;;;;;;;7.10;2.20;;;;;;;;;;5028953;28;20512;-61
2022/04/10 09:30:48;;;;;;;6.07;2.38;;;;;;;;;;5082877;28;20585;-59
2022/04/10 09:33:15;;;;;;;6.13;2.45;;;;;;;;;;5034588;28;20314;-61
2022/04/10 09:35:54;;;;;;;4.90;1.95;;;;;;;;;;5030971;28;20032;-59
2022/04/10 09:38:31;;;;;;;4.93;1.80;;;;;;;;;;5032450;28;20066;-61
2022/04/10 09:41:13;;;;;;;6.00;2.22;;;;;;;;;;5049817;28;20120;-61
2022/04/10 09:43:43;;;;;;;5.55;2.42;;;;;;;;;;5033685;28;20035;-61
2022/04/10 09:46:13;;;;;;;4.78;2.08;;;;;;;;;;5049351;28;20528;-61
2022/04/10 09:48:41;;;;;;;6.28;1.73;;;;;;;;;;5034163;28;20640;-60
2022/04/10 09:51:10;;;;;;;5.97;1.98;;;;;;;;;;5026052;28;20655;-61
2022/04/10 09:53:38;;;;;;;9.73;3.45;;;;;;;;;;5068707;28;20051;-61
2022/04/10 09:56:08;;;;;;;9.07;2.70;;;;;;;;;;5033569;28;20046;-61
2022/04/10 09:58:36;;;;;;;7.15;3.22;;;;;;;;;;5083676;28;20390;-60
2022/04/10 10:01:10;;;;;;;9.30;2.10;;;;;;;;;;5024117;28;20123;-60
2022/04/10 10:03:44;;;;;;;6.35;2.30;;;;;;;;;;5061126;28;20055;-61
2022/04/10 10:06:19;;;;;;;7.57;1.90;;;;;;;;;;5030875;28;20403;-59
2022/04/10 10:08:53;;;;;;;6.18;2.35;;;;;;;;;;5018083;28;20040;-61
2022/04/10 10:11:20;;;;;;;5.15;1.85;;;;;;;;;;5036502;28;20044;-59
2022/04/10 10:13:47;;;;;;;10.27;3.08;;;;;;;;;;5086535;28;20520;-59
2022/04/10 10:16:14;;;;;;;4.35;2.15;;;;;;;;;;5082581;28;20586;-60
2022/04/10 10:18:44;;;;;;;6.15;2.08;;;;;;;;;;5015298;28;20048;-60
2022/04/10 10:21:12;;;;;;;7.70;2.38;;;;;;;;;;5051192;28;20106;-61
2022/04/10 10:23:41;;;;;;;5.47;1.90;;;;;;;;;;5029187;28;20383;-61
2022/04/10 10:26:31;;;;;;;9.07;2.07;;;;;;;;;;5037925;28;20048;-61
2022/04/10 10:29:12;;;;;;;4.97;2.22;;;;;;;;;;5028249;28;20100;-61
2022/04/10 10:31:57;;;;;;;6.45;2.10;;;;;;;;;;5033260;28;20078;-62
2022/04/10 10:34:28;;;;;;;6.97;2.28;;;;;;;;;;5065460;28;20574;-61
2022/04/10 10:36:57;;;;;;;8.05;2.35;;;;;;;;;;5032526;28;20079;-58
2022/04/10 10:39:24;;;;;;;5.60;2.47;;;;;;;;;;5067000;28;20075;-59
2022/04/10 10:41:52;;;;;;;6.95;2.25;;;;;;;;;;5016410;28;20205;-62
2022/04/10 10:44:26;;;;;;;6.78;1.92;;;;;;;;;;5046687;28;20094;-61
2022/04/10 10:46:52;;;;;;;;;;;;;;;;;;5030497;28;20141;-59
2022/04/10 10:49:20;;;;;;;9.05;1.75;;;;;;;;;;5046472;28;19939;-59
2022/04/10 10:51:54;;;;;;;6.07;2.05;;;;;;;;;;5030969;28;20047;-60
2022/04/10 10:54:30;;;;;;;5.65;2.08;;;;;;;;;;5034606;28;20084;-60
2022/04/10 10:56:57;;;;;;;11.18;3.08;;;;;;;;;;5047139;28;20490;-59
2022/04/10 10:59:30;;;;;;;7.35;2.08;;;;;;;;;;5078747;28;20044;-59
2022/04/10 11:02:05;;;;;;;8.02;3.17;;;;;;;;;;5030561;28;20040;-59
2022/04/10 11:04:36;;;;;;;7.88;1.70;;;;;;;;;;5026711;28;20565;-60
2022/04/10 11:07:21;;;;;;;9.57;2.28;;;;;;;;;;5043933;28;20047;-60
2022/04/10 11:09:55;;;;;;;6.85;2.47;;;;;;;;;;5064887;28;20055;-60
2022/04/10 11:12:29;;;;;;;6.93;1.98;;;;;;;;;;5048680;28;20068;-60
2022/04/10 11:14:56;;;;;;;10.85;2.28;;;;;;;;;;5034477;28;20040;-60
2022/04/10 11:17:29;;;;;;;3.78;2.00;;;;;;;;;;5083443;28;20390;-60
2022/04/10 11:19:58;;;;;;;10.25;1.95;;;;;;;;;;5030409;28;20123;-60
2022/04/10 11:22:31;;;;;;;4.18;1.70;;;;;;;;;;5030372;28;20078;-60
2022/04/10 11:24:59;;;;;;;5.85;1.90;;;;;;;;;;5029931;28;20028;-59
2022/04/10 11:27:46;;;;;;;5.18;1.77;;;;;;;;;;5031284;28;20040;-60
2022/04/10 11:30:20;;;;;;;7.95;1.80;;;;;;;;;;5028277;28;20492;-59
2022/04/10 11:32:56;;;;;;;6.20;1.63;;;;;;;;;;5046982;28;20044;-59
2022/04/10 11:35:25;;;;;;;6.90;1.70;;;;;;;;;;5049047;28;20074;-59
2022/04/10 11:37:53;;;;;;;5.72;1.75;;;;;;;;;;5024653;28;20058;-59
2022/04/10 11:40:24;;;;;;;9.05;2.63;;;;;;;;;;5063716;28;20056;-61
2022/04/10 11:42:54;;;;;;;2.25;1.40;;;;;;;;;;5063332;28;20043;-61
2022/04/10 11:45:22;;;;;;;4.43;1.60;;;;;;;;;;5030868;28;20080;-61
2022/04/10 11:47:49;;;;;;;3.50;1.50;;;;;;;;;;5048597;28;20042;-61
2022/04/10 11:50:16;;;;;;;4.90;1.92;;;;;;;;;;5041144;28;20064;-62
2022/04/10 11:52:56;;;;;;;4.45;1.90;;;;;;;;;;5064728;28;20036;-61
2022/04/10 11:55:29;;;;;;;5.15;1.20;;;;;;;;;;5031721;28;20050;-61
2022/04/10 11:57:59;;;;;;;4.10;1.65;;;;;;;;;;5027661;28;20268;-61
2022/04/10 12:00:32;;;;;;;2.67;1.35;;;;;;;;;;5014244;28;20036;-61
2022/04/10 12:02:58;;;;;;;;;;;;;;;;;;5048076;28;20036;-62
2022/04/10 12:05:31;;;;;;;3.80;1.50;;;;;;;;;;5034121;28;19920;-61
2022/04/10 12:08:00;;;;;;;4.28;1.50;;;;;;;;;;5048220;28;20335;-62
2022/04/10 12:10:27;;;;;;;4.75;1.40;;;;;;;;;;5021013;28;20036;-61
2022/04/10 12:12:57;;;;;;;7.63;1.67;;;;;;;;;;5027543;28;20044;-62
2022/04/10 12:15:25;;;;;;;4.55;1.42;;;;;;;;;;5064455;28;20404;-61
2022/04/10 12:18:11;;;;;;;9.18;2.22;;;;;;;;;;5062651;28;20044;-61
2022/04/10 12:20:41;;;;;;;9.02;1.40;;;;;;;;;;5017050;28;20075;-61
2022/04/10 12:23:35;;;;;;;2.75;1.40;;;;;;;;;;5042751;28;20122;-61
2022/04/10 12:26:02;;;;;;;4.60;1.65;;;;;;;;;;5073990;28;20048;-61
2022/04/10 12:28:30;;;;;;;4.15;1.40;;;;;;;;;;5029940;28;20044;-61
2022/04/10 12:30:59;;;;;;;5.60;1.88;;;;;;;;;;5049048;28;20053;-61
2022/04/10 12:33:29;;;;;;;3.08;1.50;;;;;;;;;;5050590;28;20185;-61
2022/04/10 12:35:58;;;;;;;3.45;1.30;;;;;;;;;;5083308;28;20040;-61
2022/04/10 12:38:34;;;;;;;4.78;1.90;;;;;;;;;;5065464;28;20036;-60
2022/04/10 12:41:05;;;;;;;7.53;1.65;;;;;;;;;;5026192;28;20447;-61
2022/04/10 12:43:35;;;;;;;4.47;2.00;;;;;;;;;;5062680;28;20040;-61
2022/04/10 12:46:08;;;;;;;5.55;1.75;;;;;;;;;;5035306;28;20803;-59
2022/04/10 12:48:37;;;;;;;3.22;1.77;;;;;;;;;;5084878;28;20521;-62
2022/04/10 12:51:07;;;;;;;6.68;1.90;;;;;;;;;;5049025;28;20536;-59
2022/04/10 12:53:35;;;;;;;3.17;1.40;;;;;;;;;;5033617;28;20048;-59
2022/04/10 12:56:06;;;;;;;3.08;1.20;;;;;;;;;;5067615;28;20056;-59
2022/04/10 12:58:55;;;;;;;5.07;1.58;;;;;;;;;;5048107;28;20410;-59
2022/04/10 13:01:29;;;;;;;3.08;1.60;;;;;;;;;;5032979;28;20028;-61
2022/04/10 13:03:59;;;;;;;6.18;1.73;;;;;;;;;;5064010;28;20043;-61
2022/04/10 13:06:44;;;;;;;3.15;1.30;;;;;;;;;;5049495;28;20071;-61
2022/04/10 13:09:11;;;;;;;3.50;1.13;;;;;;;;;;5050337;28;20044;-61
2022/04/10 13:11:39;;;;;;;4.15;1.35;;;;;;;;;;5050843;28;20036;-61
2022/04/10 13:14:11;;;;;;;4.50;1.30;;;;;;;;;;5052701;28;20036;-61
2022/04/10 13:16:38;;;;;;;5.55;1.80;;;;;;;;;;5024075;28;20044;-61
2022/04/10 13:19:06;;;;;;;3.60;1.67;;;;;;;;;;5085052;28;20056;-61
2022/04/10 13:21:39;;;;;;;4.07;1.05;;;;;;;;;;5034903;28;20032;-61
2022/04/10 13:24:09;;;;;;;4.70;1.42;;;;;;;;;;5070034;28;20424;-61
2022/04/10 13:26:37;;;;;;;4.22;1.65;;;;;;;;;;5028659;28;20467;-61
2022/04/10 13:29:05;;;;;;;3.38;1.23;;;;;;;;;;5067539;28;20044;-61
2022/04/10 13:31:33;;;;;;;4.47;1.40;;;;;;;;;;5049470;28;20525;-61
2022/04/10 13:34:04;;;;;;;5.78;1.52;;;;;;;;;;5050981;28;20056;-61
2022/04/10 13:36:32;;;;;;;6.95;1.55;;;;;;;;;;5065782;28;20039;-61
2022/04/10 13:39:02;;;;;;;9.05;1.92;;;;;;;;;;5048710;28;20519;-61
2022/04/10 13:41:33;;;;;;;3.88;0.95;;;;;;;;;;5015926;28;20097;-61
2022/04/10 13:44:03;;;;;;;6.72;1.30;;;;;;;;;;5047279;28;20508;-61
2022/04/10 13:46:39;;;;;;;5.97;2.10;;;;;;;;;;5047139;28;20056;-61
2022/04/10 13:49:09;;;;;;;4.93;1.40;;;;;;;;;;5030747;28;20045;-61
2022/04/10 13:51:35;;;;;;;4.43;1.55;;;;;;;;;;5064159;28;20506;-61
2022/04/10 13:54:02;;;;;;;2.72;1.30;;;;;;;;;;5066290;28;20048;-61
2022/04/10 13:56:29;;;;;;;3.85;1.40;;;;;;;;;;5063096;28;20083;-61
2022/04/10 13:58:56;;;;;;;6.50;1.77;;;;;;;;;;5026559;28;20037;-62
2022/04/10 14:01:23;;;;;;;6.68;2.10;;;;;;;;;;5045080;28;20119;-60
2022/04/10 14:03:49;;;;;;;6.80;2.28;;;;;;;;;;5045059;28;20044;-61
2022/04/10 14:06:18;;;;;;;8.32;2.10;;;;;;;;;;5063668;28;20422;-61
2022/04/10 14:08:48;;;;;;;4.32;1.25;;;;;;;;;;5009805;28;20090;-61
2022/04/10 14:11:15;;;;;;;3.58;1.25;;;;;;;;;;5021496;28;20078;-61
2022/04/10 14:13:51;;;;;;;4.30;1.40;;;;;;;;;;5039684;28;20044;-61
2022/04/10 14:16:21;;;;;;;5.82;1.40;;;;;;;;;;5026220;28;20052;-61
2022/04/10 14:18:48;;;;;;;4.07;2.13;;;;;;;;;;5045693;28;20041;-61
2022/04/10 14:21:18;;;;;;;10.35;2.97;;;;;;;;;;5063592;28;20066;-61
2022/04/10 14:23:45;;;;;;;5.90;1.80;;;;;;;;;;5009299;28;20032;-61
2022/04/10 14:26:13;;;;;;;6.07;1.75;;;;;;;;;;5024816;28;20122;-61
2022/04/10 14:28:40;;;;;;;3.63;1.25;;;;;;;;;;5013903;28;20044;-61
2022/04/10 14:31:13;;;;;;;5.20;1.58;;;;;;;;;;5040692;28;20044;-61
2022/04/10 14:33:43;;;;;;;2.88;1.48;;;;;;;;;;5060375;28;20040;-61
2022/04/10 14:36:10;;;;;;;2.97;1.55;;;;;;;;;;5064479;28;20041;-61
2022/04/10 14:38:37;;;;;;;2.67;1.52;;;;;;;;;;5015113;28;20168;-60
2022/04/10 14:41:05;;;;;;;5.90;1.63;;;;;;;;;;5077464;28;20044;-60
2022/04/10 14:43:33;;;;;;;5.88;1.15;;;;;;;;;;5064989;28;20043;-59
2022/04/10 14:46:00;;;;;;;3.97;1.40;;;;;;;;;;5031029;28;20468;-62
2022/04/10 14:48:27;;;;;;;3.78;2.10;;;;;;;;;;5063229;28;20067;-61
2022/04/10 14:50:53;;;;;;;3.78;1.42;;;;;;;;;;5082529;28;20573;-61
2022/04/10 14:53:23;;;;;;;4.28;1.00;;;;;;;;;;5046540;28;20123;-61